createdAt,value
2023-04-27T00:02:08.563Z,4.18
2023-04-27T00:04:35.781Z,5.32
2023-04-27T00:07:02.742Z,4.50
2023-04-27T00:09:29.553Z,3.67
2023-04-27T00:11:56.298Z,5.10
2023-04-27T00:14:23.129Z,7.30
2023-04-27T00:16:50.114Z,4.10
2023-04-27T00:19:17.166Z,3.33
2023-04-27T00:21:43.968Z,4.85
2023-04-27T00:24:10.808Z,3.88
2023-04-27T00:26:37.573Z,3.67
2023-04-27T00:29:04.423Z,4.13
2023-04-27T00:31:31.215Z,3.47
2023-04-27T00:33:57.954Z,3.85
2023-04-27T00:36:24.804Z,4.32
2023-04-27T00:38:51.644Z,3.75
2023-04-27T00:41:18.460Z,2.85
2023-04-27T00:43:46.420Z,4.25
2023-04-27T00:46:14.195Z,4.22
2023-04-27T00:48:41.857Z,4.05
2023-04-27T00:51:08.733Z,5.55
2023-04-27T00:53:37.557Z,4.80
2023-04-27T00:56:07.843Z,2.97
2023-04-27T00:58:34.682Z,6.78
2023-04-27T01:01:01.554Z,3.17
2023-04-27T01:03:28.687Z,3.75
2023-04-27T01:05:56.888Z,4.55
2023-04-27T01:08:23.758Z,4.10
2023-04-27T01:10:50.802Z,3.50
2023-04-27T01:13:17.816Z,3.08
2023-04-27T01:15:44.585Z,3.10
2023-04-27T01:18:11.437Z,3.55
2023-04-27T01:20:38.845Z,3.45
2023-04-27T01:23:06.343Z,3.78
2023-04-27T01:25:33.265Z,5.57
2023-04-27T01:28:00.163Z,3.25
2023-04-27T01:30:28.595Z,4.65
2023-04-27T01:32:56.458Z,3.10
2023-04-27T01:35:23.345Z,3.42
2023-04-27T01:37:50.940Z,4.68
2023-04-27T01:40:18.365Z,4.88
2023-04-27T01:42:45.159Z,3.60
2023-04-27T01:45:12.176Z,5.15
2023-04-27T01:47:39.154Z,3.15
2023-04-27T01:50:06.461Z,4.45
2023-04-27T01:52:33.250Z,3.42
2023-04-27T01:55:00.018Z,4.70
2023-04-27T01:57:26.874Z,3.58
2023-04-27T01:59:53.616Z,3.58
2023-04-27T02:02:22.032Z,4.18
2023-04-27T02:04:49.060Z,4.65
2023-04-27T02:07:15.976Z,5.82
2023-04-27T02:09:43.094Z,4.82
2023-04-27T02:12:09.834Z,4.63
2023-04-27T02:14:36.576Z,4.60
2023-04-27T02:17:03.619Z,3.40
2023-04-27T02:19:30.578Z,3.45
2023-04-27T02:21:57.502Z,5.82
2023-04-27T02:24:24.292Z,3.15
2023-04-27T02:26:51.090Z,5.93
2023-04-27T02:29:18.575Z,4.30
2023-04-27T02:31:46.543Z,7.00
2023-04-27T02:34:13.377Z,3.30
2023-04-27T02:36:40.357Z,3.85
2023-04-27T02:39:07.149Z,3.47
2023-04-27T02:41:33.972Z,4.57
2023-04-27T02:44:00.747Z,5.28
2023-04-27T02:46:27.653Z,3.17
2023-04-27T02:48:55.853Z,7.43
2023-04-27T02:51:22.773Z,4.55
2023-04-27T02:53:49.620Z,5.45
2023-04-27T02:56:16.700Z,4.28
2023-04-27T02:58:44.909Z,5.40
2023-04-27T03:01:12.002Z,4.57
2023-04-27T03:03:39.046Z,4.80
2023-04-27T03:06:06.460Z,3.63
2023-04-27T03:08:33.276Z,3.83
2023-04-27T03:11:00.041Z,3.80
2023-04-27T03:13:26.869Z,3.65
2023-04-27T03:15:53.632Z,5.25
2023-04-27T03:18:20.491Z,4.10
2023-04-27T03:20:47.333Z,4.47
2023-04-27T03:23:14.143Z,4.18
2023-04-27T03:25:40.884Z,3.90
2023-04-27T03:28:07.669Z,3.55
2023-04-27T03:30:34.419Z,4.10
2023-04-27T03:33:01.428Z,4.78
2023-04-27T03:35:28.221Z,5.18
2023-04-27T03:37:55.027Z,4.82
2023-04-27T03:40:21.981Z,3.28
2023-04-27T03:42:48.804Z,4.28
2023-04-27T03:45:16.728Z,5.18
2023-04-27T03:47:43.539Z,4.82
2023-04-27T03:50:10.527Z,4.70
2023-04-27T03:52:37.473Z,4.45
2023-04-27T03:55:05.138Z,4.15
2023-04-27T03:57:32.005Z,3.80
2023-04-27T03:59:58.900Z,5.38
2023-04-27T04:02:25.928Z,4.40
2023-04-27T04:04:53.051Z,3.58
2023-04-27T04:07:20.244Z,4.55
2023-04-27T04:09:47.047Z,4.63
2023-04-27T04:12:13.842Z,5.10
2023-04-27T04:14:40.588Z,4.47
2023-04-27T04:17:10.977Z,5.60
2023-04-27T04:19:37.949Z,3.13
2023-04-27T04:22:04.981Z,4.50
2023-04-27T04:24:31.758Z,6.57
2023-04-27T04:26:58.897Z,3.10
2023-04-27T04:29:25.919Z,5.30
2023-04-27T04:31:52.998Z,4.05
2023-04-27T04:34:20.134Z,7.35
2023-04-27T04:36:47.112Z,4.78
2023-04-27T04:39:14.618Z,8.85
2023-04-27T04:41:42.197Z,6.15
2023-04-27T04:44:09.072Z,6.45
2023-04-27T04:46:37.498Z,3.65
2023-04-27T04:49:04.762Z,4.20
2023-04-27T04:51:31.776Z,4.22
2023-04-27T04:54:01.100Z,4.32
2023-04-27T04:56:28.676Z,4.80
2023-04-27T04:58:55.633Z,3.72
2023-04-27T05:01:22.539Z,5.32
2023-04-27T05:03:49.562Z,5.10
2023-04-27T05:06:16.440Z,3.60
2023-04-27T05:08:43.228Z,4.10
2023-04-27T05:11:10.108Z,5.22
2023-04-27T05:13:38.373Z,4.13
2023-04-27T05:16:06.727Z,6.20
2023-04-27T05:18:34.692Z,5.07
2023-04-27T05:21:01.610Z,4.45
2023-04-27T05:23:28.459Z,3.50
2023-04-27T05:25:55.254Z,3.67
2023-04-27T05:28:22.150Z,6.30
2023-04-27T05:30:49.000Z,7.90
2023-04-27T05:33:15.851Z,5.28
2023-04-27T05:35:42.729Z,5.13
2023-04-27T05:38:09.533Z,6.60
2023-04-27T05:40:36.414Z,5.30
2023-04-27T05:43:05.601Z,9.25
2023-04-27T05:45:32.854Z,6.13
2023-04-27T05:47:59.738Z,3.47
2023-04-27T05:50:26.566Z,4.80
2023-04-27T05:52:53.313Z,7.38
2023-04-27T05:55:20.191Z,5.60
2023-04-27T05:57:51.718Z,6.25
2023-04-27T06:00:25.290Z,5.40
2023-04-27T06:02:52.101Z,5.10
2023-04-27T06:05:19.111Z,5.78
2023-04-27T06:07:46.198Z,5.60
2023-04-27T06:10:13.221Z,5.10
2023-04-27T06:12:39.968Z,4.28
2023-04-27T06:15:10.461Z,6.43
2023-04-27T06:17:38.608Z,4.65
2023-04-27T06:20:09.358Z,4.30
2023-04-27T06:22:39.487Z,8.02
2023-04-27T06:25:06.895Z,4.15
2023-04-27T06:27:34.674Z,6.82
2023-04-27T06:30:01.505Z,5.93
2023-04-27T06:32:28.254Z,4.80
2023-04-27T06:34:55.011Z,4.65
2023-04-27T06:37:21.863Z,5.90
2023-04-27T06:39:48.620Z,5.13
2023-04-27T06:42:15.466Z,6.57
2023-04-27T06:44:42.205Z,5.25
2023-04-27T06:47:09.387Z,7.45
2023-04-27T06:49:36.147Z,16.75
2023-04-27T06:52:03.213Z,12.95
2023-04-27T06:54:30.021Z,14.55
2023-04-27T06:56:56.821Z,20.80
2023-04-27T06:59:23.783Z,24.98
2023-04-27T07:01:50.538Z,25.58
2023-04-27T07:04:17.495Z,24.27
2023-04-27T07:06:44.303Z,31.40
2023-04-27T07:09:24.034Z,28.30
2023-04-27T07:11:53.693Z,21.15
2023-04-27T07:14:20.649Z,21.27
2023-04-27T07:16:47.785Z,22.67
2023-04-27T07:19:14.796Z,17.73
2023-04-27T07:21:41.971Z,17.50
2023-04-27T07:24:08.955Z,19.35
2023-04-27T07:26:36.574Z,22.55
2023-04-27T07:29:11.185Z,25.25
2023-04-27T07:31:41.741Z,19.27
2023-04-27T07:34:08.567Z,20.60
2023-04-27T07:36:35.421Z,18.52
2023-04-27T07:39:02.397Z,19.77
2023-04-27T07:41:29.139Z,15.13
2023-04-27T07:43:57.952Z,21.25
2023-04-27T07:46:26.387Z,16.63
2023-04-27T07:48:55.152Z,18.77
2023-04-27T07:51:22.234Z,15.48
2023-04-27T07:53:49.121Z,17.17
2023-04-27T07:56:16.266Z,13.70
2023-04-27T07:58:43.689Z,13.77
2023-04-27T08:01:10.563Z,9.25
2023-04-27T08:03:37.636Z,9.48
2023-04-27T08:06:05.253Z,12.90
2023-04-27T08:08:32.483Z,10.77
2023-04-27T08:10:59.310Z,10.20
2023-04-27T08:13:26.192Z,11.07
2023-04-27T08:15:58.386Z,8.75
2023-04-27T08:18:26.276Z,11.02
2023-04-27T08:20:53.454Z,9.55
2023-04-27T08:23:20.604Z,6.38
2023-04-27T08:25:48.401Z,5.22
2023-04-27T08:28:15.630Z,7.32
2023-04-27T08:30:43.565Z,8.60
2023-04-27T08:33:10.937Z,5.50
2023-04-27T08:35:37.760Z,6.50
2023-04-27T08:38:04.594Z,6.28
2023-04-27T08:40:31.421Z,6.07
2023-04-27T08:43:00.034Z,6.50
2023-04-27T08:45:27.949Z,6.97
2023-04-27T08:47:54.838Z,4.57
2023-04-27T08:50:24.238Z,5.30
2023-04-27T08:52:52.350Z,3.78
2023-04-27T08:55:19.427Z,5.97
2023-04-27T08:57:56.934Z,4.50
2023-04-27T09:00:27.071Z,4.07
2023-04-27T09:02:54.189Z,4.70
2023-04-27T09:05:22.559Z,8.38
2023-04-27T09:08:05.533Z,5.10
2023-04-27T09:10:49.049Z,5.28
2023-04-27T09:13:16.287Z,6.75
2023-04-27T09:15:48.678Z,6.90
2023-04-27T09:18:21.974Z,6.57
2023-04-27T09:20:51.144Z,7.53
2023-04-27T09:23:33.743Z,5.60
2023-04-27T09:26:03.378Z,8.20
2023-04-27T09:28:31.989Z,8.05
2023-04-27T09:31:00.240Z,9.95
2023-04-27T09:33:27.922Z,6.95
2023-04-27T09:35:55.419Z,6.20
2023-04-27T09:38:23.488Z,7.43
2023-04-27T09:40:52.365Z,6.13
2023-04-27T09:43:19.510Z,8.07
2023-04-27T09:45:46.469Z,6.13
2023-04-27T09:48:13.914Z,7.00
2023-04-27T09:50:42.575Z,6.60
2023-04-27T09:53:23.207Z,10.20
2023-04-27T09:56:28.529Z,7.40
2023-04-27T09:59:41.789Z,9.48
2023-04-27T10:02:23.555Z,9.30
2023-04-27T10:05:10.386Z,7.60
2023-04-27T10:07:41.233Z,5.65
2023-04-27T10:10:20.444Z,8.07
2023-04-27T10:13:01.680Z,9.02
2023-04-27T10:15:30.148Z,5.00
2023-04-27T10:18:03.617Z,6.82
2023-04-27T10:20:37.543Z,6.50
2023-04-27T10:23:04.885Z,4.75
2023-04-27T10:25:42.032Z,4.80
2023-04-27T10:28:15.167Z,3.92
2023-04-27T10:30:46.452Z,5.03
2023-04-27T10:33:17.628Z,5.25
2023-04-27T10:35:55.912Z,8.38
2023-04-27T10:38:28.389Z,11.18
2023-04-27T10:41:03.447Z,5.00
2023-04-27T10:43:32.252Z,5.68
2023-04-27T10:46:15.753Z,6.15
2023-04-27T10:48:43.816Z,4.88
2023-04-27T10:51:15.662Z,4.53
2023-04-27T10:53:42.615Z,5.13
2023-04-27T10:56:10.390Z,11.70
2023-04-27T11:01:09.009Z,5.15
2023-04-27T11:03:36.706Z,7.15
2023-04-27T11:06:05.531Z,4.63
2023-04-27T11:08:34.116Z,3.95
2023-04-27T11:11:01.834Z,5.68
2023-04-27T11:13:28.891Z,4.75
2023-04-27T11:15:59.917Z,4.00
2023-04-27T11:18:31.693Z,6.05
2023-04-27T11:21:11.241Z,4.07
2023-04-27T11:23:39.462Z,5.95
2023-04-27T11:26:21.803Z,3.75
2023-04-27T11:29:05.508Z,5.97
2023-04-27T11:31:40.867Z,3.83
2023-04-27T11:34:08.475Z,3.78
2023-04-27T11:36:36.186Z,4.20
2023-04-27T11:39:06.482Z,6.60
2023-04-27T11:41:34.987Z,5.25
2023-04-27T11:44:07.467Z,9.18
2023-04-27T11:46:38.947Z,3.70
2023-04-27T11:49:08.940Z,5.22
2023-04-27T11:51:36.443Z,5.07
2023-04-27T11:54:07.323Z,5.63
2023-04-27T11:56:42.052Z,4.03
2023-04-27T11:59:23.226Z,5.70
2023-04-27T12:01:51.727Z,3.28
2023-04-27T12:04:18.980Z,3.17
2023-04-27T12:06:46.088Z,4.47
2023-04-27T12:09:13.108Z,4.38
2023-04-27T12:11:39.933Z,9.05
2023-04-27T12:14:07.296Z,5.57
2023-04-27T12:16:34.144Z,4.22
2023-04-27T12:19:01.646Z,6.18
2023-04-27T12:21:28.637Z,5.70
2023-04-27T12:23:55.852Z,4.90
2023-04-27T12:26:22.654Z,3.88
2023-04-27T12:28:49.509Z,4.55
2023-04-27T12:31:17.094Z,6.45
2023-04-27T12:33:43.896Z,5.95
2023-04-27T12:36:11.093Z,4.20
2023-04-27T12:38:37.922Z,3.13
2023-04-27T12:41:05.025Z,3.35
2023-04-27T12:43:32.406Z,5.22
2023-04-27T12:45:59.253Z,8.02
2023-04-27T12:48:26.469Z,3.95
2023-04-27T12:50:53.336Z,5.75
2023-04-27T12:53:21.775Z,3.35
2023-04-27T12:55:49.076Z,5.40
2023-04-27T12:58:15.948Z,5.05
2023-04-27T13:00:42.991Z,6.15
2023-04-27T13:03:10.247Z,4.22
2023-04-27T13:05:37.245Z,4.32
2023-04-27T13:08:13.048Z,4.47
2023-04-27T13:10:42.371Z,5.93
2023-04-27T13:13:09.359Z,2.80
2023-04-27T13:15:37.718Z,4.45
2023-04-27T13:18:06.556Z,4.05
2023-04-27T13:20:34.101Z,4.35
2023-04-27T13:23:01.053Z,2.63
2023-04-27T13:25:27.962Z,3.80
2023-04-27T13:27:54.810Z,4.78
2023-04-27T13:30:21.872Z,8.23
2023-04-27T13:32:48.694Z,3.80
2023-04-27T13:35:15.850Z,3.20
2023-04-27T13:37:42.891Z,3.85
2023-04-27T13:40:12.807Z,3.60
2023-04-27T13:42:40.377Z,3.55
2023-04-27T13:45:07.686Z,3.08
2023-04-27T13:47:37.303Z,3.15
2023-04-27T13:50:06.691Z,4.43
2023-04-27T13:52:35.458Z,4.50
2023-04-27T13:55:07.546Z,2.17
2023-04-27T13:57:34.707Z,5.55
2023-04-27T14:00:02.241Z,4.47
2023-04-27T14:02:30.013Z,2.90
2023-04-27T14:04:57.579Z,3.90
2023-04-27T14:07:24.419Z,2.85
2023-04-27T14:09:51.236Z,4.22
2023-04-27T14:12:18.107Z,4.32
2023-04-27T14:14:45.137Z,3.40
2023-04-27T14:17:12.019Z,3.50
2023-04-27T14:19:38.866Z,4.60
2023-04-27T14:22:06.401Z,4.07
2023-04-27T14:24:33.161Z,1.92
2023-04-27T14:27:00.003Z,4.55
2023-04-27T14:29:26.914Z,5.28
2023-04-27T14:31:53.795Z,3.50
2023-04-27T14:34:21.694Z,2.92
2023-04-27T14:36:48.798Z,4.72
2023-04-27T14:39:16.152Z,3.50
2023-04-27T14:41:43.192Z,5.75
2023-04-27T14:44:10.027Z,5.10
2023-04-27T14:46:37.177Z,3.58
2023-04-27T14:49:04.010Z,5.38
2023-04-27T14:51:32.498Z,3.05
2023-04-27T14:53:59.412Z,3.45
2023-04-27T14:56:26.346Z,4.60
2023-04-27T14:58:55.194Z,4.60
2023-04-27T15:01:24.986Z,4.10
2023-04-27T15:03:53.190Z,5.18
2023-04-27T15:06:21.928Z,3.92
2023-04-27T15:08:48.809Z,4.63
2023-04-27T15:11:16.303Z,4.95
2023-04-27T15:13:43.118Z,3.97
2023-04-27T15:16:10.023Z,6.10
2023-04-27T15:18:37.007Z,5.13
2023-04-27T15:21:04.316Z,7.97
2023-04-27T15:23:32.162Z,4.45
2023-04-27T15:25:58.966Z,2.88
2023-04-27T15:28:25.901Z,6.35
2023-04-27T15:30:52.792Z,4.93
2023-04-27T15:33:19.837Z,4.00
2023-04-27T15:35:46.678Z,4.28
2023-04-27T15:38:14.575Z,5.95
2023-04-27T15:40:41.814Z,6.15
2023-04-27T15:43:08.616Z,5.72
2023-04-27T15:45:35.496Z,8.20
2023-04-27T15:48:02.400Z,6.28
2023-04-27T15:50:29.396Z,6.30
2023-04-27T15:52:56.214Z,7.03
2023-04-27T15:55:23.013Z,7.32
2023-04-27T15:57:50.648Z,5.57
2023-04-27T16:00:19.032Z,7.13
2023-04-27T16:02:46.852Z,7.25
2023-04-27T16:05:14.443Z,5.70
2023-04-27T16:07:43.562Z,8.35
2023-04-27T16:10:11.697Z,4.82
2023-04-27T16:12:38.841Z,6.20
2023-04-27T16:15:08.451Z,7.78
2023-04-27T16:17:37.082Z,8.02
2023-04-27T16:20:07.989Z,6.43
2023-04-27T16:22:35.557Z,7.03
2023-04-27T16:25:03.785Z,6.70
2023-04-27T16:27:31.046Z,9.50
2023-04-27T16:29:57.843Z,10.60
2023-04-27T16:32:24.833Z,7.68
2023-04-27T16:34:51.791Z,7.30
2023-04-27T16:37:18.590Z,8.80
2023-04-27T16:39:45.694Z,9.32
2023-04-27T16:42:20.125Z,7.63
2023-04-27T16:44:47.493Z,7.25
2023-04-27T16:47:14.618Z,7.07
2023-04-27T16:49:45.085Z,6.57
2023-04-27T16:52:12.458Z,6.18
2023-04-27T16:54:39.233Z,8.88
2023-04-27T16:57:07.750Z,9.82
2023-04-27T16:59:34.736Z,11.05
2023-04-27T17:02:12.425Z,5.35
2023-04-27T17:04:43.682Z,4.88
2023-04-27T17:07:10.831Z,7.35
2023-04-27T17:09:37.912Z,7.72
2023-04-27T17:12:10.938Z,9.15
2023-04-27T17:14:38.810Z,5.57
2023-04-27T17:17:06.430Z,5.43
2023-04-27T17:19:33.304Z,6.80
2023-04-27T17:22:00.261Z,6.82
2023-04-27T17:24:27.138Z,4.60
2023-04-27T17:26:54.048Z,5.72
2023-04-27T17:29:21.731Z,5.20
2023-04-27T17:31:50.133Z,6.85
2023-04-27T17:34:17.035Z,5.95
2023-04-27T17:36:44.039Z,6.57
2023-04-27T17:39:12.985Z,7.40
2023-04-27T17:41:40.534Z,7.70
2023-04-27T17:44:07.331Z,6.88
2023-04-27T17:46:34.281Z,6.65
2023-04-27T17:49:01.512Z,7.63
2023-04-27T17:51:28.370Z,7.65
2023-04-27T17:53:55.151Z,10.95
2023-04-27T17:56:22.591Z,5.60
2023-04-27T17:58:49.428Z,6.10
2023-04-27T18:01:16.304Z,7.65
2023-04-27T18:03:43.381Z,9.63
2023-04-27T18:06:13.320Z,8.10
2023-04-27T18:08:40.250Z,7.38
2023-04-27T18:11:07.131Z,6.07
2023-04-27T18:13:34.371Z,4.93
2023-04-27T18:16:01.295Z,8.43
2023-04-27T18:18:28.580Z,8.55
2023-04-27T18:20:55.635Z,7.18
2023-04-27T18:23:22.666Z,5.03
2023-04-27T18:25:49.823Z,8.68
2023-04-27T18:28:16.752Z,7.60
2023-04-27T18:30:43.677Z,9.90
2023-04-27T18:33:10.701Z,12.77
2023-04-27T18:35:37.616Z,9.45
2023-04-27T18:38:04.543Z,7.80
2023-04-27T18:40:32.897Z,6.25
2023-04-27T18:42:59.750Z,5.70
2023-04-27T18:45:27.903Z,7.43
2023-04-27T18:47:54.807Z,6.97
2023-04-27T18:50:21.704Z,7.75
2023-04-27T18:52:48.600Z,7.15
2023-04-27T18:55:16.715Z,6.95
2023-04-27T18:57:43.717Z,6.05
2023-04-27T19:00:11.860Z,9.70
2023-04-27T19:02:39.150Z,6.13
2023-04-27T19:05:12.223Z,7.60
2023-04-27T19:07:40.743Z,8.52
2023-04-27T19:10:08.406Z,5.22
2023-04-27T19:12:35.964Z,8.35
2023-04-27T19:15:02.940Z,7.95
2023-04-27T19:17:30.057Z,8.20
2023-04-27T19:19:56.925Z,7.88
2023-04-27T19:22:24.036Z,7.68
2023-04-27T19:24:50.907Z,7.93
2023-04-27T19:27:17.829Z,6.88
2023-04-27T19:29:55.933Z,9.45
2023-04-27T19:32:26.860Z,8.75
2023-04-27T19:34:55.812Z,7.10
2023-04-27T19:37:23.284Z,6.30
2023-04-27T19:39:51.496Z,6.63
2023-04-27T19:42:18.373Z,7.90
2023-04-27T19:44:45.143Z,6.18
2023-04-27T19:47:12.036Z,11.90
2023-04-27T19:49:39.109Z,9.50
2023-04-27T19:52:06.837Z,12.57
2023-04-27T19:54:35.943Z,8.07
2023-04-27T19:57:03.956Z,7.75
2023-04-27T19:59:30.884Z,7.80
2023-04-27T20:01:57.788Z,8.60
2023-04-27T20:04:25.229Z,6.78
2023-04-27T20:06:53.038Z,5.90
2023-04-27T20:09:20.042Z,7.55
2023-04-27T20:11:46.885Z,11.73
2023-04-27T20:14:13.896Z,6.70
2023-04-27T20:16:41.020Z,11.13
2023-04-27T20:19:07.996Z,8.65
2023-04-27T20:21:34.865Z,7.55
2023-04-27T20:24:01.664Z,7.72
2023-04-27T20:26:28.645Z,6.57
2023-04-27T20:28:55.473Z,10.10
2023-04-27T20:31:22.267Z,8.25
2023-04-27T20:33:49.122Z,10.60
2023-04-27T20:36:18.142Z,6.75
2023-04-27T20:38:46.001Z,7.18
2023-04-27T20:41:12.964Z,7.75
2023-04-27T20:43:40.255Z,11.90
2023-04-27T20:46:11.701Z,9.45
2023-04-27T20:48:38.698Z,7.10
2023-04-27T20:51:05.826Z,9.30
2023-04-27T20:53:32.717Z,6.57
2023-04-27T20:55:59.589Z,7.22
2023-04-27T20:58:27.148Z,12.88
2023-04-27T21:00:54.098Z,11.77
2023-04-27T21:03:21.216Z,10.73
2023-04-27T21:05:49.283Z,8.98
2023-04-27T21:08:16.924Z,10.30
2023-04-27T21:10:44.528Z,7.47
2023-04-27T21:13:11.501Z,11.70
2023-04-27T21:15:38.653Z,11.93
2023-04-27T21:18:07.863Z,11.13
2023-04-27T21:20:36.228Z,11.40
2023-04-27T21:23:03.530Z,10.65
2023-04-27T21:25:30.563Z,10.57
2023-04-27T21:27:57.389Z,9.23
2023-04-27T21:30:24.493Z,11.75
2023-04-27T21:32:51.407Z,10.77
2023-04-27T21:35:18.393Z,9.95
2023-04-27T21:37:45.345Z,10.32
2023-04-27T21:40:12.385Z,12.98
2023-04-27T21:42:39.273Z,9.88
2023-04-27T21:45:06.644Z,10.23
2023-04-27T21:47:33.424Z,10.32
2023-04-27T21:50:00.238Z,7.88
2023-04-27T21:52:27.004Z,12.27
2023-04-27T21:54:53.860Z,7.13
2023-04-27T21:57:27.951Z,8.63
2023-04-27T21:59:55.177Z,9.93
2023-04-27T22:02:22.585Z,8.63
2023-04-27T22:04:51.278Z,10.70
2023-04-27T22:07:18.831Z,6.30
2023-04-27T22:09:46.007Z,7.68
2023-04-27T22:12:13.265Z,8.93
2023-04-27T22:14:41.831Z,8.02
2023-04-27T22:17:08.622Z,10.98
2023-04-27T22:19:36.101Z,9.10
2023-04-27T22:22:03.879Z,7.57
2023-04-27T22:24:31.388Z,10.27
2023-04-27T22:26:58.235Z,9.18
2023-04-27T22:29:25.214Z,11.13
2023-04-27T22:31:52.193Z,9.43
2023-04-27T22:34:19.414Z,8.68
2023-04-27T22:36:46.428Z,8.07
2023-04-27T22:39:13.284Z,7.30
2023-04-27T22:41:40.222Z,5.13
2023-04-27T22:44:07.071Z,9.57
2023-04-27T22:46:34.188Z,8.15
2023-04-27T22:49:01.517Z,9.77
2023-04-27T22:51:28.342Z,6.65
2023-04-27T22:53:55.146Z,8.98
2023-04-27T22:56:22.538Z,7.93
2023-04-27T22:58:49.429Z,7.70
2023-04-27T23:01:16.675Z,5.93
2023-04-27T23:03:43.995Z,7.53
2023-04-27T23:06:16.938Z,8.00
2023-04-27T23:08:46.997Z,8.52
2023-04-27T23:11:15.553Z,9.13
2023-04-27T23:13:42.534Z,11.25
2023-04-27T23:16:10.014Z,8.70
2023-04-27T23:18:37.048Z,7.60
2023-04-27T23:21:04.115Z,9.07
2023-04-27T23:23:31.094Z,8.38
2023-04-27T23:25:57.965Z,7.70
2023-04-27T23:28:24.787Z,9.73
2023-04-27T23:30:55.254Z,10.48
2023-04-27T23:33:22.331Z,10.55
2023-04-27T23:35:49.364Z,7.70
2023-04-27T23:38:16.236Z,9.00
2023-04-27T23:40:43.061Z,6.82
2023-04-27T23:43:09.907Z,7.93
2023-04-27T23:45:36.909Z,9.80
2023-04-27T23:48:04.065Z,10.13
2023-04-27T23:50:30.941Z,8.20
2023-04-27T23:52:57.987Z,7.40
2023-04-27T23:55:24.762Z,7.75
2023-04-27T23:57:54.492Z,6.97
